Time;durP1;ratioP1;P1;durP2;ratioP2;P2;SDS_P1;SDS_P2;PMS_P1;PMS_P2;Temp;Humidity;BMP_temperature;BMP_pressure;BME280_temperature;BME280_humidity;BME280_pressure;Samples;Min_cycle;Max_cycle;Signal;HPM_P1;HPM_P2
2023/08/15 00:00:02;;;;;;;7.25;3.10;;;19.60;99.90;;;;;;5039022;28;20488;-73
2023/08/15 00:02:28;;;;;;;6.75;3.00;;;19.60;99.90;;;;;;5056165;28;20040;-72
2023/08/15 00:04:57;;;;;;;5.03;2.70;;;19.60;99.90;;;;;;5055761;28;20127;-72
2023/08/15 00:07:29;;;;;;;6.43;2.92;;;19.60;99.90;;;;;;5039711;28;20074;-66
2023/08/15 00:10:04;;;;;;;6.07;3.15;;;19.60;99.90;;;;;;5056151;28;20245;-67
2023/08/15 00:12:30;;;;;;;6.65;2.80;;;19.60;99.90;;;;;;5055482;28;20044;-66
2023/08/15 00:14:56;;;;;;;9.05;3.70;;;19.60;99.90;;;;;;5072309;28;20097;-67
2023/08/15 00:17:22;;;;;;;7.32;3.42;;;19.60;99.90;;;;;;5055472;28;20033;-68
2023/08/15 00:19:48;;;;;;;6.90;3.08;;;19.50;99.90;;;;;;5072243;28;20388;-68
2023/08/15 00:22:17;;;;;;;8.65;3.85;;;19.50;99.90;;;;;;5038811;28;20404;-67
2023/08/15 00:24:43;;;;;;;6.43;3.40;;;19.50;99.90;;;;;;5039052;28;20083;-67
2023/08/15 00:27:09;;;;;;;8.45;3.92;;;19.30;99.90;;;;;;5071848;28;20086;-67
2023/08/15 00:29:38;;;;;;;7.40;3.38;;;19.30;99.90;;;;;;5072214;28;20127;-67
2023/08/15 00:32:04;;;;;;;7.47;3.10;;;19.20;99.90;;;;;;5042225;28;20044;-66
2023/08/15 00:34:29;;;;;;;6.13;3.15;;;19.20;99.90;;;;;;5075453;28;20507;-67
2023/08/15 00:36:55;;;;;;;7.72;3.35;;;19.20;99.90;;;;;;5075482;28;20039;-65
2023/08/15 00:39:42;;;;;;;7.57;3.53;;;19.20;99.90;;;;;;5075147;28;20122;-67
2023/08/15 00:42:07;;;;;;;6.50;3.05;;;19.20;99.90;;;;;;5061268;28;20079;-67
2023/08/15 00:44:33;;;;;;;9.23;3.97;;;19.20;99.90;;;;;;5058404;28;20076;-67
2023/08/15 00:47:02;;;;;;;8.05;3.28;;;19.10;99.90;;;;;;5075324;28;20066;-68
2023/08/15 00:49:29;;;;;;;7.25;3.58;;;19.10;99.90;;;;;;5075274;28;20047;-66
2023/08/15 00:51:59;;;;;;;5.70;3.00;;;19.10;99.90;;;;;;5058335;28;20048;-67
2023/08/15 00:54:25;;;;;;;7.90;3.20;;;19.20;99.90;;;;;;5075520;28;20043;-67
2023/08/15 00:56:51;;;;;;;7.00;3.25;;;19.10;99.90;;;;;;5074982;28;20036;-66
2023/08/15 00:59:27;;;;;;;7.30;3.33;;;19.10;99.90;;;;;;5074957;28;20043;-68
2023/08/15 01:02:05;;;;;;;6.15;3.30;;;19.10;99.90;;;;;;5058968;28;20544;-67
2023/08/15 01:04:31;;;;;;;8.48;3.45;;;19.00;99.90;;;;;;5058819;28;20047;-66
2023/08/15 01:06:58;;;;;;;6.97;3.60;;;19.10;99.90;;;;;;5058171;28;20093;-67
2023/08/15 01:09:24;;;;;;;7.85;3.20;;;19.10;99.90;;;;;;5074752;28;20040;-67
2023/08/15 01:12:27;;;;;;;7.57;3.25;;;19.10;99.90;;;;;;5074919;28;20055;-67
2023/08/15 01:15:01;;;;;;;7.50;3.97;;;19.00;99.90;;;;;;5059047;28;20036;-68
2023/08/15 01:18:04;;;;;;;7.78;3.40;;;19.00;99.90;;;;;;5058461;28;20032;-67
2023/08/15 01:20:36;;;;;;;9.88;5.40;;;19.00;99.90;;;;;;5071900;28;20055;-66
2023/08/15 01:23:18;;;;;;;8.80;4.27;;;19.00;99.90;;;;;;5058302;28;20516;-66
2023/08/15 01:25:55;;;;;;;7.95;3.97;;;18.90;99.90;;;;;;5074798;28;20446;-66
2023/08/15 01:28:21;;;;;;;10.10;5.03;;;18.90;99.90;;;;;;5075036;28;20043;-66
2023/08/15 01:30:56;;;;;;;14.48;9.48;;;18.90;99.90;;;;;;5078392;28;20488;-66
2023/08/15 01:33:59;;;;;;;14.35;9.25;;;18.80;99.90;;;;;;5078428;28;20131;-67
2023/08/15 01:36:37;;;;;;;10.10;6.10;;;18.80;99.90;;;;;;5069762;28;20076;-67
2023/08/15 01:39:06;;;;;;;12.48;8.85;;;18.80;99.90;;;;;;5078937;28;20127;-67
2023/08/15 01:41:44;;;;;;;12.23;6.95;;;18.80;99.90;;;;;;5078595;28;20399;-68
2023/08/15 01:44:11;;;;;;;13.73;10.02;;;18.80;99.90;;;;;;5079605;28;20093;-68
2023/08/15 01:46:37;;;;;;;11.57;6.30;;;18.80;99.90;;;;;;5045131;28;20050;-67
2023/08/15 01:49:12;;;;;;;11.43;7.63;;;18.80;99.90;;;;;;5096613;28;20153;-67
2023/08/15 01:51:38;;;;;;;10.10;6.60;;;18.80;99.90;;;;;;5078661;28;20122;-67
2023/08/15 01:54:04;;;;;;;11.07;7.82;;;18.80;99.90;;;;;;5078007;28;20211;-67
2023/08/15 01:56:33;;;;;;;9.25;6.30;;;18.90;99.90;;;;;;5078229;28;20495;-68
2023/08/15 01:58:59;;;;;;;11.27;6.13;;;18.90;99.90;;;;;;5078227;28;20119;-67
2023/08/15 02:01:25;;;;;;;13.65;8.85;;;18.90;99.90;;;;;;5028525;28;20086;-66
2023/08/15 02:03:51;;;;;;;12.73;8.93;;;18.90;99.90;;;;;;5078104;28;20040;-68
2023/08/15 02:06:16;;;;;;;11.30;6.97;;;18.80;99.90;;;;;;5077746;28;20040;-66
2023/08/15 02:08:42;;;;;;;11.57;6.93;;;18.80;99.90;;;;;;5078105;28;20063;-72
2023/08/15 02:11:08;;;;;;;11.20;8.65;;;18.90;99.90;;;;;;5061167;28;20051;-73
2023/08/15 02:13:34;;;;;;;12.48;8.40;;;18.90;99.90;;;;;;5078029;28;20036;-72
2023/08/15 02:16:00;;;;;;;17.05;12.75;;;18.90;99.90;;;;;;5077980;28;20040;-72
2023/08/15 02:18:33;;;;;;;11.60;9.75;;;18.90;99.90;;;;;;5077937;28;20484;-72
2023/08/15 02:20:59;;;;;;;12.13;7.75;;;18.80;99.90;;;;;;5077595;28;20158;-72
2023/08/15 02:23:24;;;;;;;12.15;7.95;;;18.90;99.90;;;;;;5077441;28;20137;-73
2023/08/15 02:25:50;;;;;;;11.73;9.30;;;18.80;99.90;;;;;;5077969;28;20090;-71
2023/08/15 02:28:16;;;;;;;15.95;11.85;;;18.80;99.90;;;;;;5077570;28;20042;-66
2023/08/15 02:30:42;;;;;;;13.20;9.15;;;18.80;99.90;;;;;;5077556;28;20040;-66
2023/08/15 02:33:08;;;;;;;13.20;10.68;;;18.80;99.90;;;;;;5077095;28;20063;-67
2023/08/15 02:35:41;;;;;;;13.30;8.82;;;18.80;99.90;;;;;;5060961;28;20044;-65
2023/08/15 02:38:08;;;;;;;11.18;7.72;;;18.80;99.90;;;;;;5077292;28;20043;-67
2023/08/15 02:40:33;;;;;;;11.85;8.35;;;18.80;99.90;;;;;;5077112;28;20055;-67
2023/08/15 02:42:59;;;;;;;14.50;12.95;;;18.80;99.90;;;;;;5077149;28;20044;-67
2023/08/15 02:45:25;;;;;;;20.92;15.57;;;18.80;99.90;;;;;;5060502;28;20055;-67
2023/08/15 02:47:51;;;;;;;18.00;14.05;;;18.70;99.90;;;;;;5077349;28;20062;-67
2023/08/15 02:50:29;;;;;;;12.38;8.95;;;18.70;99.90;;;;;;5045059;28;20121;-67
2023/08/15 02:53:03;;;;;;;19.77;16.45;;;18.70;99.90;;;;;;5060259;28;20036;-67
2023/08/15 02:55:28;;;;;;;20.73;15.57;;;18.70;99.90;;;;;;5060068;28;20047;-67
2023/08/15 02:58:03;;;;;;;20.83;17.60;;;18.80;99.90;;;;;;5060233;28;20047;-67
2023/08/15 03:00:28;;;;;;;21.10;16.63;;;18.80;99.90;;;;;;5044270;28;20085;-67
2023/08/15 03:02:54;;;;;;;18.85;15.25;;;18.80;99.90;;;;;;5060127;28;20079;-67
2023/08/15 03:05:20;;;;;;;15.70;13.07;;;18.90;99.90;;;;;;5060417;28;20093;-67
2023/08/15 03:07:49;;;;;;;17.23;14.55;;;18.80;99.90;;;;;;5076549;28;20040;-67
2023/08/15 03:10:15;;;;;;;14.15;10.40;;;18.90;99.90;;;;;;5076798;28;20083;-66
2023/08/15 03:12:41;;;;;;;15.50;13.63;;;18.90;99.90;;;;;;5076494;28;20047;-66
2023/08/15 03:15:07;;;;;;;18.52;16.20;;;18.90;99.90;;;;;;5076662;28;20039;-67
2023/08/15 03:17:33;;;;;;;22.42;20.02;;;18.90;99.90;;;;;;5076749;28;20100;-67
2023/08/15 03:19:59;;;;;;;22.80;19.70;;;18.90;99.90;;;;;;5043197;28;20040;-67
2023/08/15 03:22:24;;;;;;;17.77;14.88;;;18.90;99.90;;;;;;5076337;28;20054;-67
2023/08/15 03:24:50;;;;;;;17.85;14.40;;;18.90;99.90;;;;;;5059648;28;20510;-66
2023/08/15 03:27:30;;;;;;;20.35;15.07;;;18.90;99.90;;;;;;5059541;28;20066;-67
2023/08/15 03:30:11;;;;;;;24.35;16.67;;;18.90;99.90;;;;;;5059972;28;20075;-67
2023/08/15 03:32:37;;;;;;;20.60;17.55;;;19.00;99.90;;;;;;5059599;28;20091;-67
2023/08/15 03:35:24;;;;;;;19.08;16.48;;;19.00;99.90;;;;;;5062107;28;20487;-69
2023/08/15 03:38:02;;;;;;;17.17;14.43;;;19.00;99.90;;;;;;5059707;28;20169;-72
2023/08/15 03:40:28;;;;;;;17.50;14.73;;;19.10;99.90;;;;;;5076059;28;20109;-73
2023/08/15 03:42:53;;;;;;;19.05;15.00;;;19.10;99.90;;;;;;5075899;28;20090;-71
2023/08/15 03:45:19;;;;;;;18.23;13.20;;;19.10;99.90;;;;;;5059371;28;20040;-72
2023/08/15 03:47:45;;;;;;;18.45;13.45;;;19.10;99.90;;;;;;5059733;28;20507;-73
2023/08/15 03:50:11;;;;;;;16.65;12.50;;;19.10;99.90;;;;;;5059105;28;20073;-74
2023/08/15 03:53:08;;;;;;;17.27;14.05;;;19.10;99.90;;;;;;5075451;28;20094;-73
2023/08/15 03:55:34;;;;;;;16.42;12.30;;;19.10;99.90;;;;;;5080215;28;20040;-73
2023/08/15 03:58:00;;;;;;;13.05;10.88;;;19.10;99.90;;;;;;5059393;28;20040;-74
2023/08/15 04:00:35;;;;;;;16.35;12.35;;;19.20;99.90;;;;;;5075942;28;20050;-73
2023/08/15 04:03:01;;;;;;;18.77;13.80;;;19.20;99.90;;;;;;5042782;28;20082;-72
2023/08/15 04:05:36;;;;;;;17.35;12.52;;;19.20;99.90;;;;;;5075642;28;20043;-73
2023/08/15 04:08:05;;;;;;;19.25;16.83;;;19.20;99.90;;;;;;5059430;28;20488;-73
2023/08/15 04:10:39;;;;;;;16.52;13.52;;;19.20;99.90;;;;;;5075537;28;20040;-73
2023/08/15 04:13:22;;;;;;;15.25;12.18;;;19.20;99.90;;;;;;5027345;28;20032;-73
2023/08/15 04:15:51;;;;;;;16.27;12.93;;;19.20;99.90;;;;;;5075602;28;20101;-72
2023/08/15 04:18:23;;;;;;;17.80;14.05;;;19.20;99.90;;;;;;5058827;28;20051;-73
2023/08/15 04:20:48;;;;;;;;;;;19.20;99.90;;;;;;5075872;28;20138;-72
2023/08/15 04:23:14;;;;;;;18.17;15.18;;;19.20;99.90;;;;;;5075465;28;19967;-72
2023/08/15 04:25:40;;;;;;;22.23;17.33;;;19.20;99.90;;;;;;5075272;28;20039;-71
2023/08/15 04:28:06;;;;;;;23.42;19.02;;;19.20;99.90;;;;;;5059040;28;20054;-71
2023/08/15 04:30:35;;;;;;;23.40;19.00;;;19.20;99.90;;;;;;5058891;28;20411;-71
2023/08/15 04:33:01;;;;;;;22.55;19.25;;;19.20;99.90;;;;;;5075063;28;20135;-71
2023/08/15 04:35:27;;;;;;;23.70;19.98;;;19.20;99.90;;;;;;5058565;28;20040;-71
2023/08/15 04:37:53;;;;;;;20.58;18.35;;;19.20;99.90;;;;;;5075315;28;20036;-72
2023/08/15 04:40:40;;;;;;;19.98;16.27;;;19.20;99.90;;;;;;5075083;28;20089;-71
2023/08/15 04:43:06;;;;;;;25.23;20.92;;;19.20;99.90;;;;;;5058420;28;20063;-70
2023/08/15 04:45:44;;;;;;;21.25;17.60;;;19.20;99.90;;;;;;5075125;28;20036;-72
2023/08/15 04:48:28;;;;;;;;;;;;;;;;;;;;;
2023/08/15 04:50:54;;;;;;;20.80;17.97;;;19.30;99.90;;;;;;5058815;28;20102;-67
2023/08/15 04:53:32;;;;;;;18.00;15.27;;;19.30;99.90;;;;;;5058628;28;20274;-67
2023/08/15 04:55:58;;;;;;;20.75;17.23;;;19.30;99.90;;;;;;5059717;28;20089;-67
2023/08/15 04:58:24;;;;;;;19.45;17.00;;;19.30;99.90;;;;;;5058342;28;20396;-67
2023/08/15 05:00:51;;;;;;;22.73;20.20;;;19.30;99.90;;;;;;5058178;28;20040;-66
2023/08/15 05:03:17;;;;;;;19.02;17.02;;;19.30;99.90;;;;;;5076497;28;20039;-67
2023/08/15 05:05:56;;;;;;;21.13;17.30;;;19.30;99.90;;;;;;5079053;28;20036;-66
2023/08/15 05:08:22;;;;;;;21.63;19.35;;;19.30;99.90;;;;;;5080956;28;20102;-67
2023/08/15 05:10:54;;;;;;;20.17;17.83;;;19.30;99.90;;;;;;5062261;28;20044;-67
2023/08/15 05:13:20;;;;;;;24.40;21.83;;;19.20;99.90;;;;;;5062792;28;20373;-67
2023/08/15 05:15:46;;;;;;;20.52;17.10;;;19.30;99.90;;;;;;5079064;28;20127;-67
2023/08/15 05:18:16;;;;;;;22.65;18.77;;;19.30;99.90;;;;;;5079320;28;20093;-67
2023/08/15 05:20:42;;;;;;;20.52;16.77;;;19.40;99.90;;;;;;5079060;28;20492;-67
2023/08/15 05:23:08;;;;;;;18.38;15.77;;;19.40;99.90;;;;;;5078844;28;20127;-67
2023/08/15 05:25:34;;;;;;;18.35;16.10;;;19.40;99.90;;;;;;5062255;28;20125;-66
2023/08/15 05:28:08;;;;;;;22.50;19.88;;;19.50;99.90;;;;;;5078684;28;20051;-66
2023/08/15 05:30:34;;;;;;;22.67;18.77;;;19.50;99.90;;;;;;5045173;28;20047;-66
2023/08/15 05:33:01;;;;;;;21.30;19.10;;;19.50;99.90;;;;;;5058403;28;20052;-67
2023/08/15 05:35:27;;;;;;;19.17;17.02;;;19.50;99.90;;;;;;5058779;28;20503;-67
2023/08/15 05:37:56;;;;;;;18.98;15.90;;;19.60;99.90;;;;;;5041919;28;20063;-67
2023/08/15 05:40:26;;;;;;;22.05;17.83;;;19.60;99.90;;;;;;5058383;28;20047;-67
2023/08/15 05:42:52;;;;;;;18.63;16.45;;;19.60;99.90;;;;;;5074908;28;20028;-66
2023/08/15 05:45:19;;;;;;;21.20;18.10;;;19.60;99.90;;;;;;5074890;28;20461;-67
2023/08/15 05:47:45;;;;;;;20.85;18.60;;;19.60;99.90;;;;;;5041605;28;20399;-66
2023/08/15 05:50:11;;;;;;;19.75;16.33;;;19.60;99.90;;;;;;5058350;28;20044;-66
2023/08/15 05:52:37;;;;;;;20.05;15.15;;;19.60;99.90;;;;;;5074737;28;20043;-66
2023/08/15 05:55:03;;;;;;;18.67;15.32;;;19.60;99.90;;;;;;5074824;28;20127;-66
2023/08/15 05:57:29;;;;;;;18.60;14.48;;;19.60;99.90;;;;;;5074991;28;20042;-73
2023/08/15 06:00:05;;;;;;;19.80;15.23;;;19.60;99.90;;;;;;5058165;28;20075;-73
2023/08/15 06:02:36;;;;;;;19.73;15.70;;;19.60;99.90;;;;;;5075077;28;20439;-73
2023/08/15 06:05:08;;;;;;;18.45;13.30;;;19.60;99.90;;;;;;5074741;28;20036;-72
2023/08/15 06:07:34;;;;;;;15.95;12.00;;;19.60;99.90;;;;;;5058125;28;20033;-73
2023/08/15 06:10:13;;;;;;;16.75;11.75;;;19.60;99.90;;;;;;5074507;28;20511;-73
2023/08/15 06:12:44;;;;;;;16.05;10.48;;;19.60;99.90;;;;;;5058510;28;20032;-72
2023/08/15 06:15:17;;;;;;;14.57;10.10;;;19.50;99.90;;;;;;5057796;28;20033;-72
2023/08/15 06:17:43;;;;;;;14.18;9.30;;;19.50;99.90;;;;;;5057748;28;20044;-73
2023/08/15 06:20:15;;;;;;;14.32;9.02;;;19.50;99.90;;;;;;5058231;28;20404;-72
2023/08/15 06:22:52;;;;;;;13.30;8.75;;;19.50;99.90;;;;;;5074518;28;20052;-72
2023/08/15 06:25:28;;;;;;;13.13;8.20;;;19.40;99.90;;;;;;5042569;28;20457;-72
2023/08/15 06:27:54;;;;;;;15.82;9.07;;;19.40;99.90;;;;;;5057835;28;20044;-72
2023/08/15 06:30:23;;;;;;;11.07;7.75;;;19.30;99.90;;;;;;5074540;28;20032;-74
2023/08/15 06:32:48;;;;;;;13.43;7.72;;;19.30;99.90;;;;;;5074153;28;20101;-73
2023/08/15 06:35:14;;;;;;;15.32;8.50;;;19.30;99.90;;;;;;5075595;28;20044;-71
2023/08/15 06:37:40;;;;;;;14.52;10.23;;;19.30;99.90;;;;;;5057531;28;20044;-73
2023/08/15 06:40:08;;;;;;;14.52;9.48;;;19.30;99.90;;;;;;5041219;28;20039;-71
2023/08/15 06:42:34;;;;;;;14.80;9.30;;;19.30;99.90;;;;;;5074283;28;20048;-73
2023/08/15 06:45:18;;;;;;;14.88;9.48;;;19.50;99.90;;;;;;5057404;28;20047;-72
2023/08/15 06:47:45;;;;;;;14.93;9.27;;;19.70;99.90;;;;;;5074531;28;20484;-73
2023/08/15 06:50:10;;;;;;;15.20;8.82;;;20.00;99.90;;;;;;5057240;28;20076;-73
2023/08/15 06:52:36;;;;;;;14.48;8.23;;;20.20;99.90;;;;;;5073944;28;20510;-71
2023/08/15 06:55:06;;;;;;;13.82;7.20;;;20.50;99.90;;;;;;5057385;28;20506;-71
2023/08/15 06:57:33;;;;;;;12.27;6.85;;;20.90;99.90;;;;;;5040973;28;20089;-72
2023/08/15 06:59:59;;;;;;;13.38;6.70;;;21.50;99.90;;;;;;5073922;28;20123;-73
2023/08/15 07:02:25;;;;;;;11.52;6.00;;;21.90;99.90;;;;;;5074226;28;20131;-73
2023/08/15 07:04:51;;;;;;;13.07;5.68;;;22.30;99.90;;;;;;5073900;28;20480;-73
2023/08/15 07:07:26;;;;;;;10.25;4.93;;;22.70;99.90;;;;;;5057025;28;20042;-73
2023/08/15 07:09:52;;;;;;;12.02;4.88;;;23.00;99.90;;;;;;5057176;28;20515;-73
2023/08/15 07:12:18;;;;;;;12.02;5.00;;;23.50;99.90;;;;;;5073326;28;20045;-72
2023/08/15 07:14:46;;;;;;;10.02;4.38;;;23.30;99.90;;;;;;5056784;28;20145;-72
2023/08/15 07:17:16;;;;;;;8.63;4.07;;;23.10;99.90;;;;;;5073589;28;20036;-73
2023/08/15 07:19:48;;;;;;;10.18;3.78;;;23.40;99.90;;;;;;5040090;28;20043;-71
2023/08/15 07:22:23;;;;;;;9.40;3.70;;;23.90;99.90;;;;;;5057904;28;20040;-72
2023/08/15 07:24:52;;;;;;;9.18;3.67;;;24.90;99.90;;;;;;5024474;28;20083;-72
2023/08/15 07:27:18;;;;;;;9.13;3.53;;;25.00;99.90;;;;;;5040755;28;20040;-73
2023/08/15 07:29:44;;;;;;;9.63;3.45;;;25.00;99.90;;;;;;5056536;28;20076;-72
2023/08/15 07:32:11;;;;;;;10.68;3.40;;;24.90;99.90;;;;;;5056499;28;20048;-72
2023/08/15 07:34:36;;;;;;;8.73;3.40;;;24.90;99.90;;;;;;5056505;28;20041;-73
2023/08/15 07:37:02;;;;;;;7.75;3.30;;;25.30;99.90;;;;;;5072991;28;20049;-73
2023/08/15 07:39:28;;;;;;;9.52;3.15;;;25.30;99.90;;;;;;5072979;28;20400;-71
2023/08/15 07:41:54;;;;;;;12.98;3.67;;;25.40;99.90;;;;;;5056310;28;20036;-72
2023/08/15 07:44:20;;;;;;;9.07;3.20;;;25.60;99.90;;;;;;5072832;28;20051;-72
2023/08/15 07:46:46;;;;;;;9.88;3.00;;;25.60;99.90;;;;;;5023089;28;20044;-72
2023/08/15 07:49:12;;;;;;;8.65;3.05;;;25.90;99.90;;;;;;5056062;28;20555;-72
2023/08/15 07:51:38;;;;;;;10.23;3.70;;;26.10;99.90;;;;;;5056189;28;20068;-72
2023/08/15 07:54:04;;;;;;;8.32;3.33;;;26.10;99.90;;;;;;5056138;28;20110;-72
2023/08/15 07:56:31;;;;;;;8.57;3.00;;;26.20;99.90;;;;;;5056310;28;20033;-72
2023/08/15 07:58:57;;;;;;;8.00;2.70;;;26.10;99.90;;;;;;5056765;28;20071;-72
2023/08/15 08:01:23;;;;;;;10.95;3.10;;;26.20;99.90;;;;;;5072665;28;20036;-72
2023/08/15 08:03:48;;;;;;;8.30;2.95;;;26.30;99.90;;;;;;5039408;28;20082;-73
2023/08/15 08:06:27;;;;;;;10.15;3.03;;;26.30;99.90;;;;;;5072791;28;20040;-73
2023/08/15 08:08:52;;;;;;;8.10;2.55;;;26.30;99.90;;;;;;5072866;28;20123;-72
2023/08/15 08:11:18;;;;;;;9.00;3.33;;;26.50;99.90;;;;;;5055533;28;20131;-66
2023/08/15 08:13:44;;;;;;;10.20;3.30;;;26.20;99.90;;;;;;5072821;28;20090;-66
2023/08/15 08:16:13;;;;;;;9.82;2.97;;;26.00;99.90;;;;;;5072363;28;20040;-74
2023/08/15 08:18:39;;;;;;;9.13;2.95;;;25.70;99.90;;;;;;5073683;28;20036;-73
2023/08/15 08:21:09;;;;;;;9.02;2.90;;;25.60;99.90;;;;;;5056262;28;20048;-74
2023/08/15 08:23:35;;;;;;;9.10;2.75;;;25.40;99.90;;;;;;5057059;28;20048;-72
2023/08/15 08:26:10;;;;;;;9.23;2.92;;;25.40;99.90;;;;;;5072835;28;20064;-74
2023/08/15 08:28:36;;;;;;;8.65;2.97;;;25.40;99.90;;;;;;5039278;28;20079;-73
2023/08/15 08:31:02;;;;;;;10.23;3.42;;;25.30;99.90;;;;;;5055960;28;20473;-72
2023/08/15 08:33:28;;;;;;;8.95;2.88;;;25.20;99.90;;;;;;5039040;28;20053;-72
2023/08/15 08:35:55;;;;;;;9.60;3.20;;;25.00;99.90;;;;;;5056016;28;20047;-72
2023/08/15 08:38:24;;;;;;;9.55;3.03;;;24.90;99.90;;;;;;5071906;28;20037;-73
2023/08/15 08:40:50;;;;;;;8.80;3.00;;;24.80;99.90;;;;;;5039305;28;20531;-72
2023/08/15 08:43:16;;;;;;;7.70;2.97;;;24.60;99.90;;;;;;5055692;28;20036;-73
2023/08/15 08:45:50;;;;;;;9.45;2.88;;;24.60;99.90;;;;;;5055466;28;20045;-73
2023/08/15 08:48:17;;;;;;;9.27;3.40;;;24.50;99.90;;;;;;5055414;28;20054;-73
2023/08/15 08:50:47;;;;;;;9.80;3.53;;;24.30;99.90;;;;;;5072353;28;20044;-73
2023/08/15 08:53:16;;;;;;;6.72;2.92;;;24.10;99.90;;;;;;5072293;28;20515;-73
2023/08/15 08:55:47;;;;;;;9.50;3.20;;;23.90;99.90;;;;;;5055888;28;20527;-73
2023/08/15 08:58:13;;;;;;;8.63;3.73;;;23.90;99.90;;;;;;5073656;28;20095;-73
2023/08/15 09:00:40;;;;;;;7.90;3.55;;;23.90;99.90;;;;;;5055112;28;20051;-72
2023/08/15 09:03:07;;;;;;;8.90;3.20;;;24.10;99.90;;;;;;5072411;28;20496;-73
2023/08/15 09:05:33;;;;;;;7.75;3.38;;;24.30;99.90;;;;;;5055499;28;20129;-72
2023/08/15 09:07:59;;;;;;;9.95;3.78;;;24.70;99.90;;;;;;5072040;28;20127;-72
2023/08/15 09:10:25;;;;;;;8.68;3.67;;;24.80;99.90;;;;;;5072109;28;20484;-72
2023/08/15 09:12:56;;;;;;;7.75;3.70;;;24.80;99.90;;;;;;5055305;28;20042;-73
2023/08/15 09:15:23;;;;;;;7.78;3.85;;;24.70;99.90;;;;;;5072179;28;20070;-73
2023/08/15 09:17:49;;;;;;;8.50;3.97;;;24.50;99.90;;;;;;5023083;28;20131;-74
2023/08/15 09:20:17;;;;;;;10.90;4.60;;;24.50;99.90;;;;;;5072344;28;20241;-73
2023/08/15 09:22:45;;;;;;;9.43;3.60;;;24.40;99.90;;;;;;5072068;28;20048;-74
2023/08/15 09:25:17;;;;;;;7.35;3.38;;;24.50;99.90;;;;;;5072226;28;20496;-74
2023/08/15 09:27:44;;;;;;;8.85;3.65;;;24.70;99.90;;;;;;5055568;28;20169;-65
2023/08/15 09:30:12;;;;;;;8.50;3.40;;;25.00;99.90;;;;;;5071491;28;20083;-66
2023/08/15 09:32:44;;;;;;;8.65;3.00;;;25.00;99.90;;;;;;5071176;28;20052;-68
2023/08/15 09:35:12;;;;;;;6.85;3.25;;;25.00;99.90;;;;;;5071364;28;20044;-68
2023/08/15 09:37:46;;;;;;;9.27;4.13;;;25.00;99.90;;;;;;5071391;28;20470;-66
2023/08/15 09:40:17;;;;;;;8.32;3.58;;;24.90;99.90;;;;;;5054902;28;20044;-67
2023/08/15 09:42:44;;;;;;;7.90;3.13;;;24.60;99.90;;;;;;5071247;28;20032;-68
2023/08/15 09:45:19;;;;;;;8.05;3.42;;;24.50;99.90;;;;;;5054947;28;20492;-66
2023/08/15 09:47:49;;;;;;;8.15;3.40;;;24.40;99.90;;;;;;5071272;28;20123;-65
2023/08/15 09:50:27;;;;;;;7.97;3.50;;;24.40;99.90;;;;;;5074177;28;20508;-67
2023/08/15 09:52:54;;;;;;;8.65;3.30;;;24.20;99.90;;;;;;5058561;28;20079;-66
2023/08/15 09:55:20;;;;;;;7.20;3.40;;;24.00;99.90;;;;;;5074731;28;20063;-66
2023/08/15 09:57:46;;;;;;;7.88;3.50;;;23.90;99.90;;;;;;5057985;28;20041;-66
2023/08/15 10:00:13;;;;;;;7.90;3.47;;;23.70;99.90;;;;;;5074964;28;20400;-67
2023/08/15 10:03:01;;;;;;;8.95;3.90;;;23.60;99.90;;;;;;5058198;28;20131;-67
2023/08/15 10:05:32;;;;;;;9.32;3.65;;;23.50;99.90;;;;;;5074739;28;20102;-66
2023/08/15 10:07:58;;;;;;;9.38;3.17;;;23.50;99.90;;;;;;5074540;28;20041;-65
2023/08/15 10:10:27;;;;;;;7.60;3.40;;;23.50;99.90;;;;;;5041163;28;20040;-66
2023/08/15 10:12:57;;;;;;;7.30;3.25;;;23.40;99.90;;;;;;5074427;28;20044;-67
2023/08/15 10:15:33;;;;;;;8.00;3.55;;;23.30;99.90;;;;;;5074581;28;20123;-67
2023/08/15 10:18:00;;;;;;;7.78;3.90;;;23.20;99.90;;;;;;5074352;28;20076;-66
2023/08/15 10:20:33;;;;;;;8.55;3.78;;;23.00;99.90;;;;;;5057743;28;20040;-66
2023/08/15 10:23:09;;;;;;;7.68;3.50;;;22.90;99.90;;;;;;5074307;28;20044;-67
2023/08/15 10:25:39;;;;;;;9.13;3.28;;;23.00;99.90;;;;;;5074338;28;20123;-67
2023/08/15 10:28:18;;;;;;;8.85;3.30;;;23.10;99.90;;;;;;5074460;28;20052;-66
2023/08/15 10:30:48;;;;;;;7.47;3.03;;;23.10;99.90;;;;;;5074529;28;20084;-67
2023/08/15 10:33:23;;;;;;;9.20;3.10;;;23.20;99.90;;;;;;5059688;28;20090;-66
2023/08/15 10:36:12;;;;;;;8.75;2.90;;;23.30;99.90;;;;;;5061137;28;20078;-67
2023/08/15 10:38:40;;;;;;;9.38;3.25;;;23.40;99.90;;;;;;5077472;28;20070;-66
2023/08/15 10:41:15;;;;;;;7.90;2.95;;;23.50;99.90;;;;;;5077218;28;20105;-66
2023/08/15 10:43:47;;;;;;;6.78;2.65;;;23.70;99.90;;;;;;5077595;28;20048;-67
2023/08/15 10:46:15;;;;;;;8.40;2.70;;;23.90;99.90;;;;;;5077359;28;20040;-66
2023/08/15 10:48:44;;;;;;;11.15;2.88;;;23.80;99.90;;;;;;5077162;28;20044;-66
2023/08/15 10:51:27;;;;;;;7.72;2.53;;;23.70;99.90;;;;;;5061195;28;20075;-66
2023/08/15 10:54:03;;;;;;;8.25;2.42;;;23.70;99.90;;;;;;5061504;28;20044;-66
2023/08/15 10:56:35;;;;;;;8.70;2.55;;;23.70;99.90;;;;;;5076204;28;20504;-68
2023/08/15 10:59:08;;;;;;;7.30;2.80;;;23.70;99.90;;;;;;5077106;28;20538;-66
2023/08/15 11:01:39;;;;;;;8.25;2.40;;;23.70;99.90;;;;;;5077074;28;20036;-66
2023/08/15 11:04:10;;;;;;;7.82;2.45;;;23.70;99.90;;;;;;5077048;28;20075;-66
2023/08/15 11:06:46;;;;;;;9.43;2.83;;;23.60;99.90;;;;;;5076720;28;20040;-67
2023/08/15 11:09:12;;;;;;;8.93;2.67;;;23.40;99.90;;;;;;5060948;28;20093;-66
2023/08/15 11:11:52;;;;;;;;;;;;;;;;;;;;;
2023/08/15 11:14:19;;;;;;;9.52;2.80;;;23.20;99.90;;;;;;5047135;28;20094;-67
2023/08/15 11:16:48;;;;;;;9.63;3.03;;;23.10;99.90;;;;;;5076808;28;20229;-67
2023/08/15 11:19:21;;;;;;;9.30;3.00;;;23.10;99.90;;;;;;5059897;28;20040;-67
2023/08/15 11:21:53;;;;;;;8.98;2.97;;;23.00;99.90;;;;;;5060461;28;20040;-67
2023/08/15 11:24:19;;;;;;;8.02;3.00;;;23.20;99.90;;;;;;5060193;28;20051;-67
2023/08/15 11:26:45;;;;;;;7.75;2.70;;;23.50;99.90;;;;;;5059995;28;20048;-66
2023/08/15 11:29:12;;;;;;;8.15;2.53;;;23.70;99.90;;;;;;5076264;28;20511;-67
2023/08/15 11:31:41;;;;;;;8.02;2.40;;;24.00;99.90;;;;;;5076127;28;20097;-66
2023/08/15 11:34:10;;;;;;;9.73;2.65;;;24.10;99.90;;;;;;5076034;28;20086;-66
2023/08/15 11:36:37;;;;;;;6.55;2.30;;;24.30;99.90;;;;;;5076154;28;20032;-65
2023/08/15 11:39:05;;;;;;;8.73;2.50;;;24.40;99.90;;;;;;5075768;28;20074;-66
2023/08/15 11:41:31;;;;;;;8.90;2.80;;;24.60;99.90;;;;;;5076085;28;20043;-66
2023/08/15 11:44:00;;;;;;;6.82;2.55;;;24.60;99.90;;;;;;5059489;28;20043;-66
2023/08/15 11:46:42;;;;;;;9.27;2.90;;;24.70;99.90;;;;;;5062311;28;20083;-65
2023/08/15 11:49:18;;;;;;;7.72;2.50;;;24.70;99.90;;;;;;5059456;28;20044;-67
2023/08/15 11:51:44;;;;;;;7.15;2.33;;;24.50;99.90;;;;;;5075940;28;20040;-67
2023/08/15 11:54:13;;;;;;;7.47;2.28;;;24.60;99.90;;;;;;5075892;28;20036;-66
2023/08/15 11:56:49;;;;;;;6.30;2.22;;;24.60;99.90;;;;;;5076274;28;20036;-67
2023/08/15 11:59:19;;;;;;;7.30;2.22;;;24.70;99.90;;;;;;5076124;28;20534;-66
2023/08/15 12:01:45;;;;;;;6.82;2.20;;;24.80;99.90;;;;;;5059409;28;20411;-66
2023/08/15 12:04:18;;;;;;;6.60;2.60;;;24.90;99.90;;;;;;5042538;28;20128;-66
2023/08/15 12:06:48;;;;;;;7.57;2.60;;;24.80;99.90;;;;;;5059694;28;20089;-66
2023/08/15 12:09:28;;;;;;;7.93;2.50;;;24.90;99.90;;;;;;5043881;28;20044;-74
2023/08/15 12:11:55;;;;;;;8.32;2.63;;;25.10;99.90;;;;;;5059861;28;20047;-74
2023/08/15 12:14:21;;;;;;;7.72;2.65;;;25.20;99.90;;;;;;5059436;28;20036;-75
2023/08/15 12:16:47;;;;;;;7.40;2.47;;;25.40;99.90;;;;;;5076092;28;20032;-75
2023/08/15 12:19:17;;;;;;;7.55;2.60;;;25.50;99.90;;;;;;5075851;28;20507;-75
2023/08/15 12:21:43;;;;;;;8.40;2.60;;;25.40;99.90;;;;;;5076165;28;20048;-74
2023/08/15 12:24:08;;;;;;;6.55;2.50;;;25.30;99.90;;;;;;5075840;28;20066;-74
2023/08/15 12:26:34;;;;;;;8.35;2.60;;;25.40;99.90;;;;;;5076184;28;20084;-73
2023/08/15 12:29:00;;;;;;;8.00;2.60;;;25.50;99.90;;;;;;5076113;28;20044;-74
2023/08/15 12:31:26;;;;;;;7.57;2.60;;;25.50;99.90;;;;;;5059176;28;20044;-74
2023/08/15 12:33:53;;;;;;;6.60;2.55;;;25.70;99.90;;;;;;5059250;28;20059;-74
2023/08/15 12:36:18;;;;;;;8.85;3.00;;;25.80;99.90;;;;;;5075856;28;20404;-73
2023/08/15 12:38:44;;;;;;;7.55;2.70;;;25.80;99.90;;;;;;5075713;28;20229;-74
2023/08/15 12:41:13;;;;;;;8.07;2.75;;;25.60;99.90;;;;;;5076177;28;20097;-74
2023/08/15 12:43:41;;;;;;;8.35;2.92;;;25.60;99.90;;;;;;5094397;28;20098;-73
2023/08/15 12:46:08;;;;;;;6.95;2.70;;;25.40;99.90;;;;;;5042582;28;20089;-73
2023/08/15 12:48:33;;;;;;;9.32;3.08;;;25.10;99.90;;;;;;5075773;28;20127;-73
2023/08/15 12:51:08;;;;;;;7.88;2.80;;;25.00;99.90;;;;;;5059283;28;20126;-75